Time;durP1;ratioP1;P1;durP2;ratioP2;P2;SDS_P1;SDS_P2;PMS_P1;PMS_P2;Temp;Humidity;BMP_temperature;BMP_pressure;BME280_temperature;BME280_humidity;BME280_pressure;Samples;Min_cycle;Max_cycle;Signal;HPM_P1;HPM_P2
2024/04/24 00:00:09;;;;;;;;;;;;;;;-144.99;100.00;52435.88;5391360;26;20068;-63
2024/04/24 00:02:37;;;;;;;;;;;;;;;-144.99;100.00;52439.94;5020154;26;9999653;-65
2024/04/24 00:05:06;;;;;;;;;;;;;;;-144.99;100.00;52441.97;5379295;26;19930;-63
2024/04/24 00:07:35;;;;;;;;;;;;;;;-144.99;100.00;52427.72;5379684;26;19933;-61
2024/04/24 00:10:07;;;;;;;;;;;;;;;-144.99;100.00;52411.41;5380311;26;20168;-61
2024/04/24 00:12:36;;;;;;;;;;;;;;;-144.99;100.00;52464.41;5380709;26;19930;-61
2024/04/24 00:15:04;;;;;;;;;;;;;;;-144.99;100.00;52417.53;5396659;26;19930;-62
2024/04/24 00:17:33;;;;;;;;;;;;;;;-144.99;100.00;52456.25;5379296;26;19933;-67
2024/04/24 00:20:01;;;;;;;;;;;;;;;-144.99;100.00;52433.81;5381306;26;21368;-62
2024/04/24 00:22:30;;;;;;;;;;;;;;;-144.99;100.00;52437.91;5382914;26;20497;-61
2024/04/24 00:24:58;;;;;;;;;;;;;;;-144.99;100.00;52419.56;5382376;26;19938;-64
2024/04/24 00:27:30;;;;;;;;;;;;;;;-144.99;100.00;52415.47;5396133;26;20285;-65
2024/04/24 00:29:58;;;;;;;;;;;;;;;-144.99;100.00;52431.78;5381433;26;20350;-66
2024/04/24 00:32:27;;;;;;;;;;;;;;;-144.99;100.00;52456.25;5380448;26;20260;-66
2024/04/24 00:34:55;;;;;;;;;;;;;;;-144.99;100.00;52407.31;5381623;26;20254;-66
2024/04/24 00:37:24;;;;;;;;;;;;;;;-144.99;100.00;52407.31;5380306;26;19929;-65
2024/04/24 00:39:52;;;;;;;;;;;;;;;-144.99;100.00;52431.78;5384622;26;19979;-65
2024/04/24 00:42:21;;;;;;;;;;;;;;;-144.99;100.00;52460.31;5381624;26;19936;-66
2024/04/24 00:44:52;;;;;;;;;;;;;;;-144.99;100.00;52409.38;5380237;26;19938;-65
2024/04/24 00:47:21;;;;;;;;;;;;;;;-144.99;100.00;52419.56;5394423;26;20357;-65
2024/04/24 00:49:51;;;;;;;;;;;;;;;-144.99;100.00;52417.53;5379934;26;19960;-65
2024/04/24 00:52:19;;;;;;;;;;;;;;;-144.99;100.00;52423.63;5380034;26;19930;-65
2024/04/24 00:54:48;;;;;;;;;;;;;;;-144.99;100.00;52417.53;5379113;26;20339;-62
2024/04/24 00:57:17;;;;;;;;;;;;;;;-144.99;100.00;52448.09;5377591;26;20562;-62
2024/04/24 00:59:45;;;;;;;;;;;;;;;-144.99;100.00;52415.47;5375729;26;19937;-61
2024/04/24 01:02:17;;;;;;;;;;;;;;;-144.99;100.00;52435.88;5384988;26;19964;-61
2024/04/24 01:04:45;;;;;;;;;;;;;;;-144.99;100.00;52399.19;5378752;26;19937;-61
2024/04/24 01:07:14;;;;;;;;;;;;;;;-144.99;100.00;52464.41;5377876;26;19936;-62
2024/04/24 01:09:42;;;;;;;;;;;;;;;-144.99;100.00;52423.63;5377820;26;20056;-62
2024/04/24 01:12:11;;;;;;;;;;;;;;;-144.99;100.00;52439.94;5377535;26;19936;-62
2024/04/24 01:14:39;;;;;;;;;;;;;;;-144.99;100.00;52417.53;5376869;26;20442;-61
2024/04/24 01:17:09;;;;;;;;;;;;;;;-144.99;100.00;52439.94;5377855;26;19936;-61
2024/04/24 01:19:50;;;;;;;;;;;;;;;-144.99;100.00;52435.88;5376247;26;20310;-68
2024/04/24 01:22:30;;;;;;;;;;;;;;;-144.99;100.00;52444.03;5374916;26;19953;-68
2024/04/24 01:25:05;;;;;;;;;;;;;;;-144.99;100.00;52439.94;5387396;26;19929;-68
2024/04/24 01:27:36;;;;;;;;;;;;;;;-144.99;100.00;52425.66;5389774;26;19929;-67
2024/04/24 01:30:05;;;;;;;;;;;;;;;-144.99;100.00;52415.47;5386503;26;20185;-68
2024/04/24 01:32:33;;;;;;;;;;;;;;;-144.99;100.00;52448.09;5376245;26;20033;-66
2024/04/24 01:35:02;;;;;;;;;;;;;;;-144.99;100.00;52444.03;5374366;26;20051;-66
2024/04/24 01:37:30;;;;;;;;;;;;;;;-144.99;100.00;52423.63;5384283;26;19995;-67
2024/04/24 01:39:56;;;;;;;;;;;;;;;-144.99;100.00;52448.09;5380627;26;19936;-67
2024/04/24 01:42:24;;;;;;;;;;;;;;;-144.99;100.00;52399.19;5394675;26;20301;-65
2024/04/24 01:44:56;;;;;;;;;;;;;;;-144.99;100.00;52435.88;5377965;26;19929;-65
2024/04/24 01:47:22;;;;;;;;;;;;;;;-144.99;100.00;52460.31;5395136;26;19930;-65
2024/04/24 01:49:52;;;;;;;;;;;;;;;-144.99;100.00;52427.72;5373907;26;21378;-66
2024/04/24 01:52:20;;;;;;;;;;;;;;;-144.99;100.00;52439.94;5374309;26;19929;-65
2024/04/24 01:54:49;;;;;;;;;;;;;;;-144.99;100.00;52384.91;5373699;26;19936;-66
2024/04/24 01:57:18;;;;;;;;;;;;;;;-144.99;100.00;52452.16;5374357;26;19949;-65
2024/04/24 01:59:46;;;;;;;;;;;;;;;-144.99;100.00;52395.09;5375002;26;20272;-65
2024/04/24 02:02:17;;;;;;;;;;;;;;;-144.99;100.00;52411.41;5374775;26;19937;-65
2024/04/24 02:04:46;;;;;;;;;;;;;;;-144.99;100.00;52399.19;5374180;26;20043;-65
2024/04/24 02:07:14;;;;;;;;;;;;;;;-144.99;100.00;52435.88;5374494;26;19929;-66
2024/04/24 02:09:43;;;;;;;;;;;;;;;-144.99;100.00;52399.19;5373802;26;20263;-66
2024/04/24 02:12:11;;;;;;;;;;;;;;;-144.99;100.00;52476.63;5374895;26;19929;-67
2024/04/24 02:14:40;;;;;;;;;;;;;;;-144.99;100.00;52452.16;5374743;26;19929;-66
2024/04/24 02:17:08;;;;;;;;;;;;;;;-144.99;100.00;52460.31;5376771;26;19930;-65
2024/04/24 02:19:41;;;;;;;;;;;;;;;-144.99;100.00;52378.78;5377882;26;20312;-65
2024/04/24 02:22:09;;;;;;;;;;;;;;;-144.99;100.00;52452.16;5377695;26;19929;-64
2024/04/24 02:27:22;;;;;;;;;;;;;;;-144.99;100.00;52419.56;5377090;26;19999;-64
2024/04/24 02:29:51;;;;;;;;;;;;;;;-144.99;100.00;52474.59;5373820;26;19930;-64
2024/04/24 02:32:19;;;;;;;;;;;;;;;-144.99;100.00;52460.31;5374442;26;19940;-64
2024/04/24 02:34:50;;;;;;;;;;;;;;;-144.99;100.00;52437.91;5377475;26;19941;-63
2024/04/24 02:37:19;;;;;;;;;;;;;;;-144.99;100.00;52427.72;5374966;26;19929;-61
2024/04/24 02:39:47;;;;;;;;;;;;;;;-144.99;100.00;52431.78;5377875;26;19935;-66
2024/04/24 02:42:16;;;;;;;;;;;;;;;-144.99;100.00;52421.59;5372887;26;19937;-66
2024/04/24 02:44:44;;;;;;;;;;;;;;;-144.99;100.00;52419.56;5372892;26;19937;-65
2024/04/24 02:47:13;;;;;;;;;;;;;;;-144.99;100.00;52425.66;5386632;26;20005;-65
2024/04/24 02:49:41;;;;;;;;;;;;;;;-144.99;100.00;52419.56;5373334;26;19929;-65
2024/04/24 02:52:13;;;;;;;;;;;;;;;-144.99;100.00;52456.25;5372984;26;19933;-67
2024/04/24 02:54:41;;;;;;;;;;;;;;;-144.99;100.00;52427.72;5372916;26;20034;-66
2024/04/24 02:57:10;;;;;;;;;;;;;;;-144.99;100.00;52427.72;5373130;26;19937;-66
2024/04/24 02:59:38;;;;;;;;;;;;;;;-144.99;100.00;52423.63;5373488;26;19930;-62
2024/04/24 03:02:09;;;;;;;;;;;;;;;-144.99;100.00;52444.03;5373517;26;19999;-67
2024/04/24 03:04:37;;;;;;;;;;;;;;;-144.99;100.00;52444.03;5373905;26;20006;-68
2024/04/24 03:07:06;;;;;;;;;;;;;;;-144.99;100.00;52431.78;5373490;26;19929;-69
2024/04/24 03:09:37;;;;;;;;;;;;;;;-144.99;100.00;52439.94;5373110;26;19954;-68
2024/04/24 03:12:06;;;;;;;;;;;;;;;-144.99;100.00;52448.09;5373062;26;19934;-68
2024/04/24 03:14:34;;;;;;;;;;;;;;;-144.99;100.00;52452.16;5372548;26;19929;-69
2024/04/24 03:17:03;;;;;;;;;;;;;;;-144.99;100.00;52444.03;5372872;26;19929;-71
2024/04/24 03:19:31;;;;;;;;;;;;;;;-144.99;100.00;52448.09;5373268;26;20223;-68
2024/04/24 03:22:00;;;;;;;;;;;;;;;-144.99;100.00;52425.66;5371357;26;19930;-68
2024/04/24 03:24:28;;;;;;;;;;;;;;;-144.99;100.00;52456.25;5372218;26;19929;-68
2024/04/24 03:27:00;;;;;;;;;;;;;;;-144.99;100.00;52391.03;5372905;26;19930;-68
2024/04/24 03:29:28;;;;;;;;;;;;;;;-144.99;100.00;52427.72;5372707;26;19929;-68
2024/04/24 03:31:57;;;;;;;;;;;;;;;-144.99;100.00;52407.31;5373225;26;19960;-68
2024/04/24 03:34:25;;;;;;;;;;;;;;;-144.99;100.00;52415.47;5374957;26;19930;-63
2024/04/24 03:36:54;;;;;;;;;;;;;;;-144.99;100.00;52431.78;5376567;26;19936;-64
2024/04/24 03:39:22;;;;;;;;;;;;;;;-144.99;100.00;52476.63;5373757;26;19930;-63
2024/04/24 03:41:51;;;;;;;;;;;;;;;-144.99;100.00;52441.97;5374556;26;19934;-65
2024/04/24 03:44:19;;;;;;;;;;;;;;;-144.99;100.00;52460.31;5372428;26;19937;-65
2024/04/24 03:46:48;;;;;;;;;;;;;;;-144.99;100.00;52429.75;5385294;26;19952;-65
2024/04/24 03:49:17;;;;;;;;;;;;;;;-144.99;100.00;52460.31;5372756;26;19929;-66
2024/04/24 03:51:45;;;;;;;;;;;;;;;-144.99;100.00;52458.28;5372351;26;19930;-66
2024/04/24 03:54:14;;;;;;;;;;;;;;;-144.99;100.00;52407.31;5371962;26;19934;-66
2024/04/24 03:56:42;;;;;;;;;;;;;;;-144.99;100.00;52423.63;5371885;26;20371;-65
2024/04/24 03:59:11;;;;;;;;;;;;;;;-144.99;100.00;52415.47;5380857;26;19936;-65
2024/04/24 04:01:42;;;;;;;;;;;;;;;-144.99;100.00;52444.03;5376896;26;20006;-65
2024/04/24 04:04:10;;;;;;;;;;;;;;;-144.99;100.00;52431.78;5372217;26;19929;-64
2024/04/24 04:06:36;;;;;;;;;;;;;;;-144.99;100.00;52427.72;5372516;26;19930;-64
2024/04/24 04:09:05;;;;;;;;;;;;;;;-144.99;100.00;52448.09;5372003;26;19930;-62
2024/04/24 04:11:33;;;;;;;;;;;;;;;-144.99;100.00;52450.13;5371213;26;20434;-64
2024/04/24 04:14:02;;;;;;;;;;;;;;;-144.99;100.00;52427.72;5383028;26;19941;-67
2024/04/24 04:16:31;;;;;;;;;;;;;;;-144.99;100.00;52452.16;5372561;26;20556;-67
2024/04/24 04:19:03;;;;;;;;;;;;;;;-144.99;100.00;52435.88;5371999;26;20080;-66
2024/04/24 04:21:31;;;;;;;;;;;;;;;-144.99;100.00;52431.78;5396265;26;20306;-66
2024/04/24 04:24:00;;;;;;;;;;;;;;;-144.99;100.00;52444.03;5396294;26;19929;-66
2024/04/24 04:26:28;;;;;;;;;;;;;;;-144.99;100.00;52439.94;5384291;26;19948;-66
2024/04/24 04:28:57;;;;;;;;;;;;;;;-144.99;100.00;52441.97;5394177;26;19936;-66
2024/04/24 04:31:26;;;;;;;;;;;;;;;-144.99;100.00;52419.56;5380342;26;19929;-67
2024/04/24 04:33:54;;;;;;;;;;;;;;;-144.99;100.00;52439.94;5391442;26;19936;-65
2024/04/24 04:36:26;;;;;;;;;;;;;;;-144.99;100.00;52415.47;5390440;26;20029;-67
2024/04/24 04:38:54;;;;;;;;;;;;;;;-144.99;100.00;52419.56;5375813;26;20334;-68
2024/04/24 04:41:23;;;;;;;;;;;;;;;-144.99;100.00;52431.78;5380264;26;19936;-67
2024/04/24 04:43:53;;;;;;;;;;;;;;;-144.99;100.00;52431.78;5375182;26;20048;-65
2024/04/24 04:46:22;;;;;;;;;;;;;;;-144.99;100.00;52456.25;5384915;26;19941;-67
2024/04/24 04:48:51;;;;;;;;;;;;;;;-144.99;100.00;52444.03;5378048;26;20221;-67
2024/04/24 04:51:19;;;;;;;;;;;;;;;-144.99;100.00;52431.78;5375160;26;20321;-65
2024/04/24 04:53:50;;;;;;;;;;;;;;;-144.99;100.00;52421.59;5374304;26;19977;-66
2024/04/24 04:56:19;;;;;;;;;;;;;;;-144.99;100.00;52444.03;5374486;26;19930;-65
2024/04/24 04:58:47;;;;;;;;;;;;;;;-144.99;100.00;52382.88;5374746;26;19941;-65
2024/04/24 05:01:16;;;;;;;;;;;;;;;-144.99;100.00;52427.72;5375002;26;20335;-65
2024/04/24 05:03:44;;;;;;;;;;;;;;;-144.99;100.00;52368.59;5374058;26;20185;-66
2024/04/24 05:06:13;;;;;;;;;;;;;;;-144.99;100.00;52407.31;5374401;26;20029;-65
2024/04/24 05:08:41;;;;;;;;;;;;;;;-144.99;100.00;52431.78;5374639;26;19930;-66
2024/04/24 05:11:13;;;;;;;;;;;;;;;-144.99;100.00;52448.09;5374177;26;20020;-66
2024/04/24 05:13:41;;;;;;;;;;;;;;;-144.99;100.00;52427.72;5373869;26;19929;-66
2024/04/24 05:16:09;;;;;;;;;;;;;;;-144.99;100.00;52419.56;5374157;26;19929;-67
2024/04/24 05:18:37;;;;;;;;;;;;;;;-144.99;100.00;52437.91;5374451;26;19930;-66
2024/04/24 05:21:07;;;;;;;;;;;;;;;-144.99;100.00;52439.94;5385420;26;20473;-65
2024/04/24 05:23:36;;;;;;;;;;;;;;;-144.99;100.00;52407.31;5374177;26;19929;-66
2024/04/24 05:29:03;;;;;;;;;;;;;;;-144.99;100.00;52403.25;5374485;26;19929;-66
2024/04/24 05:29:03;;;;;;;;;;;;;;;-144.99;100.00;52427.72;5374662;26;19929;-66
2024/04/24 05:31:32;;;;;;;;;;;;;;;-144.99;100.00;52452.16;5374447;26;20236;-67
2024/04/24 05:33:58;;;;;;;;;;;;;;;-144.99;100.00;52446.06;5376242;26;19949;-67
2024/04/24 05:36:26;;;;;;;;;;;;;;;-144.99;100.00;52431.78;5373874;26;19940;-67
2024/04/24 05:38:55;;;;;;;;;;;;;;;-144.99;100.00;52444.03;5374203;26;19933;-66
2024/04/24 05:41:23;;;;;;;;;;;;;;;-144.99;100.00;52466.44;5378522;26;19929;-67
2024/04/24 05:43:52;;;;;;;;;;;;;;;-144.99;100.00;52415.47;5372882;26;19949;-67
2024/04/24 05:46:23;;;;;;;;;;;;;;;-144.99;100.00;52441.97;5383053;26;20040;-67
2024/04/24 05:48:51;;;;;;;;;;;;;;;-144.99;100.00;52409.38;5377044;26;19930;-67
2024/04/24 05:51:20;;;;;;;;;;;;;;;-144.99;100.00;52415.47;5374300;26;19945;-67
2024/04/24 05:53:49;;;;;;;;;;;;;;;-144.99;100.00;52391.03;5373139;26;19930;-67
2024/04/24 05:56:17;;;;;;;;;;;;;;;-144.99;100.00;52399.19;5374442;26;19936;-66
2024/04/24 05:58:46;;;;;;;;;;;;;;;-144.99;100.00;52460.31;5374076;26;19933;-66
2024/04/24 06:01:15;;;;;;;;;;;;;;;-144.99;100.00;52444.03;5374146;26;19937;-66
2024/04/24 06:03:46;;;;;;;;;;;;;;;-144.99;100.00;52421.59;5373677;26;20040;-66
2024/04/24 06:06:15;;;;;;;;;;;;;;;-144.99;100.00;52417.53;5374454;26;19987;-66
2024/04/24 06:08:43;;;;;;;;;;;;;;;-144.99;100.00;52456.25;5374279;26;19929;-67
2024/04/24 06:11:12;;;;;;;;;;;;;;;-144.99;100.00;52431.78;5373772;26;19957;-67
2024/04/24 06:13:40;;;;;;;;;;;;;;;-144.99;100.00;52374.72;5373512;26;20267;-67
2024/04/24 06:16:09;;;;;;;;;;;;;;;-144.99;100.00;52472.56;5374224;26;19929;-67
2024/04/24 06:18:37;;;;;;;;;;;;;;;-144.99;100.00;52437.91;5374365;26;19929;-67
2024/04/24 06:21:09;;;;;;;;;;;;;;;-144.99;100.00;52456.25;5386753;26;19937;-67
2024/04/24 06:23:37;;;;;;;;;;;;;;;-144.99;100.00;52444.03;5373554;26;19929;-66
2024/04/24 06:26:06;;;;;;;;;;;;;;;-144.99;100.00;52474.59;5374705;26;20401;-66
2024/04/24 06:28:34;;;;;;;;;;;;;;;-144.99;100.00;52427.72;5374489;26;19930;-67
2024/04/24 06:31:03;;;;;;;;;;;;;;;-144.99;100.00;52427.72;5374099;26;19966;-65
2024/04/24 06:33:31;;;;;;;;;;;;;;;-144.99;100.00;52439.94;5375831;26;19936;-66
2024/04/24 06:36:00;;;;;;;;;;;;;;;-144.99;100.00;52474.59;5373749;26;20047;-67
2024/04/24 06:38:31;;;;;;;;;;;;;;;-144.99;100.00;52431.78;5374447;26;19929;-67
2024/04/24 06:41:00;;;;;;;;;;;;;;;-144.99;100.00;52435.88;5374044;26;20224;-67
2024/04/24 06:43:28;;;;;;;;;;;;;;;-144.99;100.00;52427.72;5374098;26;19929;-67
2024/04/24 06:45:57;;;;;;;;;;;;;;;-144.99;100.00;52468.47;5377783;26;20337;-67
2024/04/24 06:48:25;;;;;;;;;;;;;;;-144.99;100.00;52452.16;5385041;26;19929;-67
2024/04/24 06:50:54;;;;;;;;;;;;;;;-144.99;100.00;52427.72;5374463;26;19941;-67
2024/04/24 06:53:22;;;;;;;;;;;;;;;-144.99;100.00;52464.41;5374042;26;19937;-67
2024/04/24 06:55:55;;;;;;;;;;;;;;;-144.99;100.00;52448.09;5373070;26;19937;-67
2024/04/24 06:58:23;;;;;;;;;;;;;;;-144.99;100.00;52415.47;5373928;26;19953;-67
2024/04/24 07:00:52;;;;;;;;;;;;;;;-144.99;100.00;52411.41;5400949;26;19945;-67
2024/04/24 07:03:23;;;;;;;;;;;;;;;-144.99;100.00;52435.88;5383655;26;19969;-67
2024/04/24 07:05:52;;;;;;;;;;;;;;;-144.99;100.00;52439.94;5377327;26;19933;-67
2024/04/24 07:08:20;;;;;;;;;;;;;;;-144.99;100.00;52452.16;5383976;26;20002;-67
2024/04/24 07:10:49;;;;;;;;;;;;;;;-144.99;100.00;52435.88;5373476;26;19936;-67
2024/04/24 07:13:20;;;;;;;;;;;;;;;-144.99;100.00;52439.94;5388299;26;19937;-67
2024/04/24 07:15:49;;;;;;;;;;;;;;;-144.99;100.00;52456.25;5373640;26;19931;-67
2024/04/24 07:18:17;;;;;;;;;;;;;;;-144.99;100.00;52413.44;5374643;26;19929;-67
2024/04/24 07:20:46;;;;;;;;;;;;;;;-144.99;100.00;52441.97;5385040;26;19929;-65
2024/04/24 07:23:15;;;;;;;;;;;;;;;-144.99;100.00;52439.94;5372849;26;20615;-66
2024/04/24 07:25:43;;;;;;;;;;;;;;;-144.99;100.00;52409.38;5370301;26;19998;-66
2024/04/24 07:28:12;;;;;;;;;;;;;;;-144.99;100.00;52444.03;5374300;26;19929;-66
2024/04/24 07:30:43;;;;;;;;;;;;;;;-144.99;100.00;52441.97;5374197;26;19929;-66
2024/04/24 07:33:12;;;;;;;;;;;;;;;-144.99;100.00;52395.09;5375750;26;19930;-66
2024/04/24 07:35:40;;;;;;;;;;;;;;;-144.99;100.00;52456.25;5373602;26;20328;-65
2024/04/24 07:38:10;;;;;;;;;;;;;;;-144.99;100.00;52431.78;5373512;26;19930;-67
2024/04/24 07:40:39;;;;;;;;;;;;;;;-144.99;100.00;52444.03;5377956;26;20376;-66
2024/04/24 07:43:07;;;;;;;;;;;;;;;-144.99;100.00;52405.28;5372788;26;19937;-66
2024/04/24 07:45:36;;;;;;;;;;;;;;;-144.99;100.00;52444.03;5373260;26;19929;-66
2024/04/24 07:48:08;;;;;;;;;;;;;;;-144.99;100.00;52433.81;5373707;26;20259;-66
2024/04/24 07:50:36;;;;;;;;;;;;;;;-144.99;100.00;52427.72;5372463;26;20494;-66
2024/04/24 07:53:05;;;;;;;;;;;;;;;-144.99;100.00;52423.63;5372148;26;19937;-66
2024/04/24 07:55:33;;;;;;;;;;;;;;;-144.99;100.00;52427.72;5383713;26;19929;-66
2024/04/24 07:58:02;;;;;;;;;;;;;;;-144.99;100.00;52419.56;5372533;26;19937;-66
2024/04/24 08:00:32;;;;;;;;;;;;;;;-144.99;100.00;52425.66;5372725;26;20346;-66
2024/04/24 08:03:01;;;;;;;;;;;;;;;-144.99;100.00;52450.13;5372194;26;19949;-67
2024/04/24 08:05:32;;;;;;;;;;;;;;;-144.99;100.00;52435.88;5372390;26;19939;-65
2024/04/24 08:08:01;;;;;;;;;;;;;;;-144.99;100.00;52429.75;5375723;26;20322;-65
2024/04/24 08:10:29;;;;;;;;;;;;;;;-144.99;100.00;52423.63;5375841;26;19936;-65
2024/04/24 08:12:58;;;;;;;;;;;;;;;-144.99;100.00;52427.72;5375229;26;19979;-65
2024/04/24 08:15:26;;;;;;;;;;;;;;;-144.99;100.00;52431.78;5375357;26;19930;-65
2024/04/24 08:17:55;;;;;;;;;;;;;;;-144.99;100.00;52415.47;5388315;26;19936;-66
2024/04/24 08:20:23;;;;;;;;;;;;;;;-144.99;100.00;52435.88;5382958;26;19929;-66
2024/04/24 08:22:54;;;;;;;;;;;;;;;-144.99;100.00;52435.88;5378093;26;20518;-65
2024/04/24 08:25:23;;;;;;;;;;;;;;;-144.99;100.00;52439.94;5375243;26;19940;-68
2024/04/24 08:27:52;;;;;;;;;;;;;;;-144.99;100.00;52431.78;5376060;26;20024;-65
2024/04/24 08:30:21;;;;;;;;;;;;;;;-144.99;100.00;52427.72;5375632;26;19944;-65
2024/04/24 08:32:50;;;;;;;;;;;;;;;-144.99;100.00;52399.19;5377845;26;20351;-65
2024/04/24 08:35:18;;;;;;;;;;;;;;;-144.99;100.00;52435.88;5375523;26;20023;-65
2024/04/24 08:37:47;;;;;;;;;;;;;;;-144.99;100.00;52425.66;5376163;26;19930;-65
2024/04/24 08:40:18;;;;;;;;;;;;;;;-144.99;100.00;52427.72;5376444;26;20596;-65
2024/04/24 08:42:46;;;;;;;;;;;;;;;-144.99;100.00;52423.63;5374834;26;20341;-67
2024/04/24 08:45:17;;;;;;;;;;;;;;;-144.99;100.00;52427.72;5376402;26;19930;-67
2024/04/24 08:47:46;;;;;;;;;;;;;;;-144.99;100.00;52386.94;5376662;26;19929;-66
2024/04/24 08:50:15;;;;;;;;;;;;;;;-144.99;100.00;52417.53;5376140;26;19929;-66
2024/04/24 08:52:46;;;;;;;;;;;;;;;-144.99;100.00;52391.03;5374800;26;20553;-65
2024/04/24 08:55:19;;;;;;;;;;;;;;;-144.99;100.00;52423.63;5375435;26;19941;-65
2024/04/24 08:57:48;;;;;;;;;;;;;;;-144.99;100.00;52452.16;5376288;26;19937;-64
2024/04/24 09:00:18;;;;;;;;;;;;;;;-144.99;100.00;52382.88;5375624;26;19994;-66
2024/04/24 09:02:49;;;;;;;;;;;;;;;-144.99;100.00;52378.78;5378643;26;19937;-66
2024/04/24 09:05:18;;;;;;;;;;;;;;;-144.99;100.00;52374.72;5375105;26;19934;-65
2024/04/24 09:07:48;;;;;;;;;;;;;;;-144.99;100.00;52415.47;5376807;26;20360;-66
2024/04/24 09:10:19;;;;;;;;;;;;;;;-144.99;100.00;52403.25;5375211;26;20240;-65
2024/04/24 09:12:48;;;;;;;;;;;;;;;-144.99;100.00;52403.25;5375795;26;20334;-65
2024/04/24 09:15:17;;;;;;;;;;;;;;;-144.99;100.00;52382.88;5375412;26;19929;-65
2024/04/24 09:17:45;;;;;;;;;;;;;;;-144.99;100.00;52380.84;5375051;26;20364;-65
2024/04/24 09:20:14;;;;;;;;;;;;;;;-144.99;100.00;52374.72;5379672;26;19929;-66
2024/04/24 09:22:42;;;;;;;;;;;;;;;-144.99;100.00;52407.31;5380109;26;19930;-66
2024/04/24 09:25:11;;;;;;;;;;;;;;;-144.99;100.00;52407.31;5374344;26;19936;-66
2024/04/24 09:27:42;;;;;;;;;;;;;;;-144.99;100.00;52370.63;5375097;26;19958;-65
2024/04/24 09:30:13;;;;;;;;;;;;;;;-144.99;100.00;52407.31;5374690;26;19930;-66
2024/04/24 09:32:42;;;;;;;;;;;;;;;-144.99;100.00;52393.06;5376936;26;19936;-66
2024/04/24 09:35:10;;;;;;;;;;;;;;;-144.99;100.00;52362.50;5373658;26;19953;-65
2024/04/24 09:37:39;;;;;;;;;;;;;;;-144.99;100.00;52413.44;5374624;26;19930;-66
2024/04/24 09:40:10;;;;;;;;;;;;;;;-144.99;100.00;52384.91;5379231;26;20009;-65
2024/04/24 09:42:38;;;;;;;;;;;;;;;-144.99;100.00;52395.09;5386477;26;19933;-65
2024/04/24 09:45:10;;;;;;;;;;;;;;;-144.99;100.00;52391.03;5374098;26;19930;-66
2024/04/24 09:47:39;;;;;;;;;;;;;;;-144.99;100.00;52386.94;5387770;26;19933;-66
2024/04/24 09:50:08;;;;;;;;;;;;;;;-144.99;100.00;52391.03;5374738;26;20237;-65
2024/04/24 09:52:37;;;;;;;;;;;;;;;-144.99;100.00;52399.19;5374665;26;19939;-65
2024/04/24 09:55:06;;;;;;;;;;;;;;;-144.99;100.00;52391.03;5374503;26;19995;-65
2024/04/24 09:57:35;;;;;;;;;;;;;;;-144.99;100.00;52391.03;5375709;26;19964;-65
2024/04/24 10:00:05;;;;;;;;;;;;;;;-144.99;100.00;52407.31;5374681;26;19929;-65
2024/04/24 10:02:41;;;;;;;;;;;;;;;-144.99;100.00;52431.78;5376953;26;19937;-66
2024/04/24 10:05:16;;;;;;;;;;;;;;;-144.99;100.00;52431.78;5376455;26;20002;-65
2024/04/24 10:07:46;;;;;;;;;;;;;;;-144.99;100.00;52382.88;5374277;26;19930;-65
2024/04/24 10:10:16;;;;;;;;;;;;;;;-144.99;100.00;52427.72;5373981;26;20276;-65
2024/04/24 10:12:46;;;;;;;;;;;;;;;-144.99;100.00;52419.56;5386642;26;20278;-65
2024/04/24 10:15:18;;;;;;;;;;;;;;;-144.99;100.00;52415.47;5373565;26;19979;-64
2024/04/24 10:17:50;;;;;;;;;;;;;;;-144.99;100.00;52419.56;5374105;26;20368;-63
2024/04/24 10:20:18;;;;;;;;;;;;;;;-144.99;100.00;52403.25;5380314;26;20271;-64
2024/04/24 10:22:47;;;;;;;;;;;;;;;-144.99;100.00;52384.91;5377845;26;19935;-64
2024/04/24 10:25:19;;;;;;;;;;;;;;;-144.99;100.00;52401.22;5373750;26;19990;-65
2024/04/24 10:27:48;;;;;;;;;;;;;;;-144.99;100.00;52395.09;5375009;26;20046;-65
2024/04/24 10:30:18;;;;;;;;;;;;;;;-144.99;100.00;52395.09;5374329;26;19937;-65
2024/04/24 10:32:49;;;;;;;;;;;;;;;-144.99;100.00;52415.47;5377241;26;19941;-64
2024/04/24 10:35:19;;;;;;;;;;;;;;;-144.99;100.00;52399.19;5374733;26;20017;-64
2024/04/24 10:37:50;;;;;;;;;;;;;;;-144.99;100.00;52378.78;5374323;26;20190;-66
2024/04/24 10:40:16;;;;;;;;;;;;;;;-144.99;100.00;52391.03;5393158;26;19929;-64
2024/04/24 10:42:46;;;;;;;;;;;;;;;-144.99;100.00;52391.03;5378040;26;19930;-66
2024/04/24 10:45:16;;;;;;;;;;;;;;;-144.99;100.00;52378.78;5373864;26;19937;-66
2024/04/24 10:47:45;;;;;;;;;;;;;;;-144.99;100.00;52358.41;5374577;26;20329;-65
2024/04/24 10:50:18;;;;;;;;;;;;;;;-144.99;100.00;52360.44;5374013;26;19929;-65
2024/04/24 10:52:47;;;;;;;;;;;;;;;-144.99;100.00;52407.31;5373513;26;19930;-66
2024/04/24 10:55:17;;;;;;;;;;;;;;;-144.99;100.00;52378.78;5373731;26;19937;-66
2024/04/24 10:57:47;;;;;;;;;;;;;;;-144.99;99.90;52354.34;5373957;26;19937;-66
2024/04/24 11:00:17;;;;;;;;;;;;;;;-144.99;100.00;52374.72;5374327;26;19929;-66
2024/04/24 11:02:46;;;;;;;;;;;;;;;-144.99;99.82;52399.19;5373909;26;19930;-66
2024/04/24 11:05:19;;;;;;;;;;;;;;;-144.99;98.94;52407.31;5375502;26;19940;-67
2024/04/24 11:07:58;;;;;;;;;;;;;;;-144.99;98.04;52388.97;5376343;26;20513;-66
2024/04/24 11:10:27;;;;;;;;;;;;;;;-144.99;98.56;52411.41;5378452;26;20229;-65
2024/04/24 11:12:55;;;;;;;;;;;;;;;-144.99;98.82;52391.03;5373302;26;20431;-65
2024/04/24 11:15:25;;;;;;;;;;;;;;;-144.99;99.33;52368.59;5373405;26;19930;-66
2024/04/24 11:17:53;;;;;;;;;;;;;;;-144.99;99.57;52399.19;5373816;26;20009;-66
2024/04/24 11:20:26;;;;;;;;;;;;;;;-144.99;99.69;52395.09;5380915;26;19929;-65
2024/04/24 11:22:55;;;;;;;;;;;;;;;-144.99;98.28;52370.63;5375340;26;19933;-65
2024/04/24 11:25:23;;;;;;;;;;;;;;;-144.99;97.86;52399.19;5373236;26;19929;-65
2024/04/24 11:27:52;;;;;;;;;;;;;;;-144.99;97.25;52395.09;5373740;26;19929;-65
2024/04/24 11:30:22;;;;;;;;;;;;;;;-144.99;96.75;52350.25;5373400;26;19957;-65
2024/04/24 11:32:51;;;;;;;;;;;;;;;-144.99;98.30;52321.72;5375775;26;19940;-65
2024/04/24 11:35:20;;;;;;;;;;;;;;;-144.99;98.33;52336.00;5373082;26;19929;-65
2024/04/24 11:37:52;;;;;;;;;;;;;;;-144.99;96.80;52352.28;5373724;26;19933;-65
2024/04/24 11:40:20;;;;;;;;;;;;;;;-144.99;93.19;52342.09;5378312;26;19937;-65
2024/04/24 11:42:50;;;;;;;;;;;;;;;-144.99;92.87;52358.41;5372182;26;20360;-66
2024/04/24 11:45:19;;;;;;;;;;;;;;;-144.99;89.60;52370.63;5373146;26;19929;-66
2024/04/24 11:47:51;;;;;;;;;;;;;;;-144.99;89.11;52317.66;5386975;26;19930;-66
2024/04/24 11:50:20;;;;;;;;;;;;;;;-144.99;85.19;52338.03;5373167;26;20028;-66
2024/04/24 11:52:51;;;;;;;;;;;;;;;-144.99;83.27;52260.56;5372771;26;19929;-66
2024/04/24 11:55:20;;;;;;;;;;;;;;;-144.99;83.92;52297.25;5372997;26;19930;-67
2024/04/24 11:57:49;;;;;;;;;;;;;;;-144.99;83.19;52354.34;5373617;26;19929;-67
2024/04/24 12:00:18;;;;;;;;;;;;;;;-144.99;82.52;52342.09;5382003;26;19937;-67
2024/04/24 12:02:46;;;;;;;;;;;;;;;-144.99;82.70;52338.03;5373258;26;19983;-67
2024/04/24 12:05:15;;;;;;;;;;;;;;;-144.99;84.06;52356.38;5378705;26;19933;-68
2024/04/24 12:07:47;;;;;;;;;;;;;;;-144.99;86.67;52174.97;5373254;26;19969;-67
2024/04/24 12:10:22;;;;;;;;;;;;;;;-144.99;85.22;52215.75;5373083;26;20202;-67
2024/04/24 12:12:51;;;;;;;;;;;;;;;-144.99;85.29;52177.00;5372388;26;19929;-67
2024/04/24 12:15:17;;;;;;;;;;;;;;;-144.99;81.58;52195.34;5372387;26;19953;-67
2024/04/24 12:17:46;;;;;;;;;;;;;;;-144.99;72.54;52191.28;5372726;26;20359;-67
2024/04/24 12:20:12;;;;;;;;;;;;;;;-144.99;69.78;52211.66;5378142;26;20311;-67
2024/04/24 12:22:41;;;;;;;;;;;;;;;-144.99;71.14;52166.81;5377392;26;19933;-67
2024/04/24 12:25:09;;;;;;;;;;;;;;;-144.99;71.00;52162.75;5371546;26;19930;-67
2024/04/24 12:27:40;;;;;;;;;;;;;;;-144.99;70.95;52146.44;5373477;26;19930;-67
2024/04/24 12:30:09;;;;;;;;;;;;;;;-144.99;69.50;52278.91;5372724;26;19956;-67